Time;durP1;ratioP1;P1;durP2;ratioP2;P2;SDS_P1;SDS_P2;PMS_P1;PMS_P2;Temp;Humidity;BMP_temperature;BMP_pressure;BME280_temperature;BME280_humidity;BME280_pressure;Samples;Min_cycle;Max_cycle;Signal;HPM_P1;HPM_P2
2022/09/07 00:00:07;;;;;;;14.70;12.60;;;;;;;;;;10129313;29;20440;-80
2022/09/07 00:05:09;;;;;;;15.90;13.48;;;;;;;;;;10104048;29;20489;-80
2022/09/07 00:10:11;;;;;;;13.32;11.98;;;;;;;;;;10127291;29;20448;-79
2022/09/07 00:15:14;;;;;;;13.13;11.82;;;;;;;;;;10125306;29;20490;-79
2022/09/07 00:20:17;;;;;;;14.35;12.02;;;;;;;;;;10128484;29;20929;-80
2022/09/07 00:25:18;;;;;;;13.15;10.98;;;;;;;;;;10127859;29;20954;-81
2022/09/07 00:30:22;;;;;;;11.02;9.85;;;;;;;;;;10127078;29;20443;-80
2022/09/07 00:35:23;;;;;;;12.85;10.95;;;;;;;;;;10127633;29;20798;-80
2022/09/07 00:40:25;;;;;;;11.18;9.98;;;;;;;;;;10119615;29;20526;-81
2022/09/07 00:45:29;;;;;;;9.63;8.63;;;;;;;;;;10111238;29;20421;-80
2022/09/07 00:50:37;;;;;;;11.32;8.50;;;;;;;;;;10115347;29;20413;-81
2022/09/07 00:55:41;;;;;;;8.82;7.47;;;;;;;;;;10127179;29;20423;-80
2022/09/07 01:00:46;;;;;;;9.23;8.20;;;;;;;;;;10126770;29;20447;-81
2022/09/07 01:05:53;;;;;;;9.10;7.70;;;;;;;;;;10125618;29;20445;-81
2022/09/07 01:10:57;;;;;;;8.88;7.97;;;;;;;;;;10123950;29;20562;-79
2022/09/07 01:16:07;;;;;;;9.60;8.70;;;;;;;;;;10123739;29;20413;-80
2022/09/07 01:21:25;;;;;;;11.67;8.40;;;;;;;;;;10121685;29;21083;-80
2022/09/07 01:26:55;;;;;;;11.50;8.55;;;;;;;;;;10087320;29;20431;-81
2022/09/07 01:32:09;;;;;;;9.87;8.50;;;;;;;;;;10089360;29;20425;-80
2022/09/07 01:37:25;;;;;;;12.68;9.40;;;;;;;;;;10113912;29;20444;-80
2022/09/07 01:42:31;;;;;;;13.20;8.75;;;;;;;;;;10125197;29;20520;-80
2022/09/07 01:47:39;;;;;;;10.45;8.90;;;;;;;;;;10122135;29;20511;-80
2022/09/07 01:52:47;;;;;;;10.27;9.23;;;;;;;;;;10124619;29;20500;-80
2022/09/07 01:57:54;;;;;;;11.52;9.13;;;;;;;;;;10125304;29;20524;-80
2022/09/07 02:03:04;;;;;;;10.25;9.18;;;;;;;;;;10122269;29;20413;-80
2022/09/07 02:08:13;;;;;;;11.73;9.97;;;;;;;;;;10110577;29;20481;-80
2022/09/07 02:13:19;;;;;;;13.57;9.97;;;;;;;;;;10120598;29;20417;-80
2022/09/07 02:18:25;;;;;;;14.50;11.80;;;;;;;;;;10126083;29;20456;-80
2022/09/07 02:23:31;;;;;;;13.85;11.10;;;;;;;;;;10118975;29;20406;-81
2022/09/07 02:28:35;;;;;;;12.57;10.40;;;;;;;;;;10108168;29;20423;-81
2022/09/07 02:33:39;;;;;;;10.50;8.43;;;;;;;;;;10131931;29;20556;-81
2022/09/07 02:38:41;;;;;;;9.77;7.72;;;;;;;;;;10129477;29;20613;-80
2022/09/07 02:43:43;;;;;;;11.05;8.95;;;;;;;;;;10118740;29;20457;-80
2022/09/07 02:48:50;;;;;;;18.20;11.93;;;;;;;;;;10130618;29;20409;-81
2022/09/07 02:54:10;;;;;;;11.67;8.87;;;;;;;;;;10129369;29;20424;-81
2022/09/07 02:59:25;;;;;;;12.82;9.82;;;;;;;;;;10127943;29;20433;-81
2022/09/07 03:04:41;;;;;;;8.63;7.03;;;;;;;;;;10127928;29;20448;-81
2022/09/07 03:09:48;;;;;;;8.05;6.63;;;;;;;;;;10128325;29;20521;-79
2022/09/07 03:14:50;;;;;;;8.10;6.97;;;;;;;;;;10127203;29;20413;-81
2022/09/07 03:19:53;;;;;;;8.93;6.97;;;;;;;;;;10127936;29;20437;-80
2022/09/07 03:24:55;;;;;;;10.30;7.53;;;;;;;;;;10118319;29;20407;-81
2022/09/07 03:29:56;;;;;;;8.60;7.07;;;;;;;;;;10129295;29;20439;-81
2022/09/07 03:35:00;;;;;;;8.60;7.40;;;;;;;;;;10129252;29;20777;-81
2022/09/07 03:40:03;;;;;;;6.03;5.43;;;;;;;;;;10128410;29;20437;-81
2022/09/07 03:45:06;;;;;;;8.55;7.03;;;;;;;;;;10125907;29;20508;-81
2022/09/07 03:50:10;;;;;;;6.95;6.25;;;;;;;;;;10125492;29;20505;-81
2022/09/07 03:55:12;;;;;;;6.80;5.90;;;;;;;;;;10126349;29;20413;-80
2022/09/07 04:00:14;;;;;;;7.47;6.00;;;;;;;;;;10116530;29;20519;-80
2022/09/07 04:05:18;;;;;;;8.55;6.95;;;;;;;;;;10116643;29;20440;-80
2022/09/07 04:10:19;;;;;;;9.73;7.97;;;;;;;;;;10128882;29;20415;-80
2022/09/07 04:15:21;;;;;;;9.63;8.40;;;;;;;;;;10128076;29;20496;-80
2022/09/07 04:20:24;;;;;;;9.95;8.95;;;;;;;;;;10128582;29;20429;-80
2022/09/07 04:25:26;;;;;;;11.60;9.40;;;;;;;;;;10116475;29;20508;-80
2022/09/07 04:30:28;;;;;;;11.65;9.82;;;;;;;;;;10115461;29;20439;-80
2022/09/07 04:35:35;;;;;;;12.27;9.50;;;;;;;;;;10114514;29;20412;-80
2022/09/07 04:40:37;;;;;;;15.35;10.02;;;;;;;;;;10112822;29;20447;-80
2022/09/07 04:45:39;;;;;;;12.52;10.30;;;;;;;;;;10117881;29;20428;-80
2022/09/07 04:50:42;;;;;;;10.97;9.60;;;;;;;;;;10126784;29;20405;-81
2022/09/07 04:55:44;;;;;;;14.30;10.77;;;;;;;;;;10126224;29;20515;-81
2022/09/07 05:00:46;;;;;;;12.23;8.82;;;;;;;;;;10125573;29;20729;-80
2022/09/07 05:05:49;;;;;;;10.43;9.10;;;;;;;;;;10125909;29;20701;-80
2022/09/07 05:10:51;;;;;;;10.48;8.30;;;;;;;;;;10123729;29;20409;-80
2022/09/07 05:15:53;;;;;;;11.40;9.65;;;;;;;;;;10122657;29;20495;-80
2022/09/07 05:21:08;;;;;;;11.82;9.65;;;;;;;;;;10123514;29;20435;-80
2022/09/07 05:26:12;;;;;;;12.13;10.20;;;;;;;;;;10125823;29;20466;-80
2022/09/07 05:31:15;;;;;;;12.53;10.03;;;;;;;;;;10126180;29;20424;-79
2022/09/07 05:36:19;;;;;;;13.73;10.90;;;;;;;;;;10125625;29;20941;-81
2022/09/07 05:41:23;;;;;;;11.88;10.55;;;;;;;;;;10124622;29;20429;-81
2022/09/07 05:46:25;;;;;;;10.35;9.35;;;;;;;;;;10122747;29;21004;-80
2022/09/07 05:51:28;;;;;;;12.25;9.82;;;;;;;;;;10126550;29;20423;-80
2022/09/07 05:56:30;;;;;;;11.23;9.68;;;;;;;;;;10129793;29;20413;-81
2022/09/07 06:01:33;;;;;;;12.68;9.73;;;;;;;;;;10128153;29;20513;-80
2022/09/07 06:06:38;;;;;;;11.25;10.00;;;;;;;;;;10128643;29;20433;-81
2022/09/07 06:11:40;;;;;;;11.32;10.05;;;;;;;;;;10127211;29;20784;-81
2022/09/07 06:16:42;;;;;;;13.73;9.98;;;;;;;;;;10126902;29;20516;-81
2022/09/07 06:21:45;;;;;;;12.77;10.00;;;;;;;;;;10128343;29;20838;-79
2022/09/07 06:26:47;;;;;;;13.07;10.00;;;;;;;;;;10132378;29;20782;-80
2022/09/07 06:31:48;;;;;;;10.33;9.20;;;;;;;;;;10131796;29;20492;-80
2022/09/07 06:36:52;;;;;;;9.77;8.77;;;;;;;;;;10130439;29;21025;-81
2022/09/07 06:41:53;;;;;;;10.97;8.40;;;;;;;;;;10129418;29;20520;-80
2022/09/07 06:46:55;;;;;;;9.73;8.80;;;;;;;;;;10117464;29;20436;-81
2022/09/07 06:51:58;;;;;;;9.73;8.30;;;;;;;;;;10127632;29;20704;-81
2022/09/07 06:57:06;;;;;;;9.90;8.00;;;;;;;;;;10126719;29;20904;-81
2022/09/07 07:02:12;;;;;;;9.48;8.00;;;;;;;;;;10124897;29;20414;-81
2022/09/07 07:07:16;;;;;;;8.70;6.20;;;;;;;;;;10125897;29;20417;-78
2022/09/07 07:12:18;;;;;;;8.68;6.63;;;;;;;;;;10125456;29;20500;-80
2022/09/07 07:17:20;;;;;;;8.13;6.50;;;;;;;;;;10124047;29;20423;-81
2022/09/07 07:22:23;;;;;;;7.37;6.47;;;;;;;;;;10127130;29;20500;-80
2022/09/07 07:27:25;;;;;;;7.60;6.60;;;;;;;;;;10129849;29;20417;-80
2022/09/07 07:32:26;;;;;;;8.50;6.60;;;;;;;;;;10129332;29;20409;-81
2022/09/07 07:37:31;;;;;;;9.03;6.87;;;;;;;;;;10128885;29;20744;-81
2022/09/07 07:42:34;;;;;;;9.13;7.50;;;;;;;;;;10129864;29;20417;-81
2022/09/07 07:47:36;;;;;;;8.45;7.35;;;;;;;;;;10129348;29;20428;-81
2022/09/07 07:52:40;;;;;;;9.85;7.53;;;;;;;;;;10121588;29;20418;-81
2022/09/07 07:57:42;;;;;;;8.53;7.53;;;;;;;;;;10091400;29;20430;-80
2022/09/07 08:02:44;;;;;;;11.53;7.57;;;;;;;;;;10113955;29;20501;-81
2022/09/07 08:07:47;;;;;;;8.68;7.75;;;;;;;;;;10092048;29;20757;-80
2022/09/07 08:12:50;;;;;;;9.93;7.80;;;;;;;;;;10090306;29;20415;-80
2022/09/07 08:17:52;;;;;;;10.13;8.00;;;;;;;;;;10116983;29;20539;-80
2022/09/07 08:22:55;;;;;;;8.47;6.93;;;;;;;;;;10124367;29;20425;-80
2022/09/07 08:27:57;;;;;;;7.27;6.00;;;;;;;;;;10119635;29;20456;-80
2022/09/07 08:32:59;;;;;;;6.80;4.90;;;;;;;;;;10126967;29;20794;-81
2022/09/07 08:38:02;;;;;;;6.20;5.10;;;;;;;;;;10125786;29;20790;-80
2022/09/07 08:43:12;;;;;;;5.60;4.95;;;;;;;;;;10126178;29;20779;-80
2022/09/07 08:48:19;;;;;;;5.80;4.78;;;;;;;;;;10125855;29;20417;-80
2022/09/07 08:53:24;;;;;;;5.65;4.85;;;;;;;;;;10115388;29;20453;-79
2022/09/07 08:58:32;;;;;;;6.45;5.15;;;;;;;;;;10126948;29;20432;-80
2022/09/07 09:03:34;;;;;;;6.17;4.90;;;;;;;;;;10125521;29;20883;-81
2022/09/07 09:08:48;;;;;;;5.47;4.90;;;;;;;;;;10125194;29;20980;-81
2022/09/07 09:13:58;;;;;;;6.47;4.67;;;;;;;;;;10124704;29;20496;-81
2022/09/07 09:19:14;;;;;;;5.55;4.45;;;;;;;;;;10124078;29;20443;-81
2022/09/07 09:24:19;;;;;;;5.03;4.47;;;;;;;;;;10126178;29;20420;-80
2022/09/07 09:29:22;;;;;;;5.35;4.13;;;;;;;;;;10139332;29;20562;-80
2022/09/07 09:34:24;;;;;;;5.47;3.60;;;;;;;;;;10139400;29;20599;-81
2022/09/07 09:39:30;;;;;;;3.77;3.17;;;;;;;;;;10138613;29;20523;-81
2022/09/07 09:44:34;;;;;;;4.35;3.40;;;;;;;;;;10138116;29;21084;-81
2022/09/07 09:49:39;;;;;;;3.78;2.88;;;;;;;;;;10137813;29;20808;-80
2022/09/07 09:54:44;;;;;;;4.35;2.85;;;;;;;;;;10137393;29;20926;-80
2022/09/07 10:00:01;;;;;;;4.20;3.00;;;;;;;;;;10136025;29;20474;-81
2022/09/07 10:05:20;;;;;;;4.10;3.15;;;;;;;;;;10136305;29;20476;-81
2022/09/07 10:10:26;;;;;;;3.17;2.90;;;;;;;;;;10135643;29;20429;-80
2022/09/07 10:15:34;;;;;;;4.43;2.67;;;;;;;;;;10136155;29;21107;-80
2022/09/07 10:20:37;;;;;;;3.25;2.20;;;;;;;;;;10136035;29;20429;-81
2022/09/07 10:25:43;;;;;;;4.15;3.05;;;;;;;;;;10138251;29;20865;-81
2022/09/07 10:30:58;;;;;;;3.30;2.70;;;;;;;;;;10125523;29;20425;-80
2022/09/07 10:36:09;;;;;;;4.30;2.75;;;;;;;;;;10135283;29;20989;-79
2022/09/07 10:41:13;;;;;;;4.95;3.10;;;;;;;;;;10129855;29;20914;-80
2022/09/07 10:46:41;;;;;;;3.42;2.90;;;;;;;;;;10128650;29;20513;-79
2022/09/07 10:51:56;;;;;;;4.45;3.00;;;;;;;;;;10126584;29;20516;-77
2022/09/07 10:57:11;;;;;;;4.95;3.70;;;;;;;;;;10127232;29;20409;-78
2022/09/07 11:02:18;;;;;;;4.05;3.03;;;;;;;;;;10127350;29;20523;-79
2022/09/07 11:07:32;;;;;;;4.90;3.53;;;;;;;;;;10124757;29;20417;-81
2022/09/07 11:12:37;;;;;;;3.92;2.80;;;;;;;;;;10124330;29;20413;-81
2022/09/07 11:17:45;;;;;;;3.97;3.15;;;;;;;;;;10123582;29;20448;-80
2022/09/07 11:22:51;;;;;;;3.58;2.90;;;;;;;;;;10126389;29;20463;-80
2022/09/07 11:28:01;;;;;;;3.03;2.72;;;;;;;;;;10109384;29;20770;-79
2022/09/07 11:33:12;;;;;;;3.33;3.00;;;;;;;;;;10129905;29;20419;-78
2022/09/07 11:38:24;;;;;;;3.30;2.90;;;;;;;;;;10129199;29;20834;-79
2022/09/07 11:43:30;;;;;;;3.67;2.67;;;;;;;;;;10112393;29;20437;-80
2022/09/07 11:48:36;;;;;;;3.00;2.60;;;;;;;;;;10117595;29;20477;-80
2022/09/07 11:53:43;;;;;;;4.50;3.03;;;;;;;;;;10129740;29;20413;-78
2022/09/07 11:59:19;;;;;;;3.37;2.90;;;;;;;;;;10127736;29;20433;-80
2022/09/07 12:04:41;;;;;;;3.20;2.90;;;;;;;;;;10126020;29;20973;-80
2022/09/07 12:10:06;;;;;;;4.33;2.77;;;;;;;;;;10125145;29;20509;-80
2022/09/07 12:15:23;;;;;;;3.60;2.67;;;;;;;;;;10115081;29;20413;-79
2022/09/07 12:20:28;;;;;;;3.80;2.50;;;;;;;;;;10121739;29;20436;-80
2022/09/07 12:25:31;;;;;;;5.00;3.10;;;;;;;;;;10127806;29;20491;-80
2022/09/07 12:30:58;;;;;;;3.15;2.80;;;;;;;;;;10125827;29;20416;-80
2022/09/07 12:36:01;;;;;;;3.57;3.00;;;;;;;;;;10116521;29;20416;-80
2022/09/07 12:41:04;;;;;;;3.80;2.80;;;;;;;;;;10125403;29;20440;-81
2022/09/07 12:46:41;;;;;;;4.07;2.90;;;;;;;;;;10124552;29;20503;-80
2022/09/07 12:51:52;;;;;;;3.58;3.03;;;;;;;;;;10122538;29;20815;-78
2022/09/07 12:56:58;;;;;;;4.43;2.93;;;;;;;;;;10112951;29;20502;-80
2022/09/07 13:02:16;;;;;;;2.88;2.67;;;;;;;;;;10121999;29;20443;-79
2022/09/07 13:07:44;;;;;;;4.65;3.00;;;;;;;;;;10122159;29;20425;-80
2022/09/07 13:12:49;;;;;;;3.20;2.88;;;;;;;;;;10122315;29;20416;-80
2022/09/07 13:17:56;;;;;;;4.97;2.70;;;;;;;;;;10119984;29;20427;-80
2022/09/07 13:23:17;;;;;;;4.97;2.97;;;;;;;;;;10108652;29;20435;-81
2022/09/07 13:28:52;;;;;;;3.88;2.72;;;;;;;;;;10095964;29;20419;-80
2022/09/07 13:33:56;;;;;;;5.20;3.00;;;;;;;;;;10125729;29;20488;-80
2022/09/07 13:38:58;;;;;;;5.00;3.10;;;;;;;;;;10125361;29;20985;-80
2022/09/07 13:44:02;;;;;;;4.40;2.90;;;;;;;;;;10125043;29;20869;-80
2022/09/07 13:49:17;;;;;;;5.32;2.90;;;;;;;;;;10124834;29;20441;-80
2022/09/07 13:54:25;;;;;;;3.75;2.50;;;;;;;;;;10124190;29;20417;-80
2022/09/07 13:59:30;;;;;;;4.55;2.70;;;;;;;;;;10123164;29;20425;-80
2022/09/07 14:04:38;;;;;;;4.83;2.80;;;;;;;;;;10121291;29;20412;-81
2022/09/07 14:09:41;;;;;;;3.67;2.80;;;;;;;;;;10110040;29;20443;-81
2022/09/07 14:14:43;;;;;;;5.43;3.30;;;;;;;;;;10125714;29;20421;-81
2022/09/07 14:19:49;;;;;;;4.03;3.13;;;;;;;;;;10126405;29;20439;-80
2022/09/07 14:24:52;;;;;;;3.78;2.85;;;;;;;;;;10132863;29;20440;-80
2022/09/07 14:29:54;;;;;;;4.00;3.10;;;;;;;;;;10132757;29;20423;-81
2022/09/07 14:34:58;;;;;;;3.20;2.90;;;;;;;;;;10131750;29;20500;-81
2022/09/07 14:40:00;;;;;;;3.57;2.53;;;;;;;;;;10131107;29;20429;-81
2022/09/07 14:45:20;;;;;;;3.17;2.60;;;;;;;;;;10130133;29;20424;-81
2022/09/07 14:50:27;;;;;;;5.00;2.60;;;;;;;;;;10118509;29;20498;-81
2022/09/07 14:55:31;;;;;;;4.80;2.50;;;;;;;;;;10117960;29;21409;-81
2022/09/07 15:00:34;;;;;;;4.25;2.53;;;;;;;;;;10129306;29;20476;-81
2022/09/07 15:05:48;;;;;;;3.97;2.35;;;;;;;;;;10128184;29;20417;-80
2022/09/07 15:11:01;;;;;;;4.80;2.50;;;;;;;;;;10129094;29;20504;-80
2022/09/07 15:16:05;;;;;;;3.10;2.53;;;;;;;;;;10127449;29;20419;-79
2022/09/07 15:21:09;;;;;;;4.37;2.60;;;;;;;;;;10127433;29;20843;-80
2022/09/07 15:26:11;;;;;;;4.90;2.42;;;;;;;;;;10117708;29;20501;-80
2022/09/07 15:31:14;;;;;;;2.87;2.33;;;;;;;;;;10130163;29;20413;-80
2022/09/07 15:36:18;;;;;;;4.00;2.50;;;;;;;;;;10130409;29;20541;-80
2022/09/07 15:41:19;;;;;;;3.47;2.50;;;;;;;;;;10130214;29;20497;-80
2022/09/07 15:46:21;;;;;;;3.20;2.53;;;;;;;;;;10095183;29;20451;-80
2022/09/07 15:51:26;;;;;;;4.60;2.22;;;;;;;;;;10103327;29;20506;-80
2022/09/07 15:56:29;;;;;;;2.75;2.45;;;;;;;;;;10116333;29;20417;-80
2022/09/07 16:01:30;;;;;;;4.53;2.33;;;;;;;;;;10127478;29;20432;-80
2022/09/07 16:06:34;;;;;;;3.10;2.65;;;;;;;;;;10103463;29;20421;-80
2022/09/07 16:11:35;;;;;;;3.92;2.50;;;;;;;;;;10120059;29;20504;-80
2022/09/07 16:16:37;;;;;;;5.93;2.92;;;;;;;;;;10127233;29;20415;-80
2022/09/07 16:21:41;;;;;;;4.30;2.38;;;;;;;;;;10121069;29;20522;-80
2022/09/07 16:26:43;;;;;;;5.15;2.05;;;;;;;;;;10090851;29;20463;-78
2022/09/07 16:31:45;;;;;;;3.85;2.38;;;;;;;;;;10111592;29;20456;-81
2022/09/07 16:36:49;;;;;;;4.32;2.40;;;;;;;;;;10122631;29;20433;-81
2022/09/07 16:41:51;;;;;;;5.45;2.47;;;;;;;;;;10120648;29;20435;-79
2022/09/07 16:46:53;;;;;;;3.23;2.43;;;;;;;;;;10119808;29;20428;-81
2022/09/07 16:51:57;;;;;;;2.90;2.30;;;;;;;;;;10119677;29;20417;-81
2022/09/07 16:56:58;;;;;;;3.57;2.47;;;;;;;;;;10122474;29;20504;-79
2022/09/07 17:02:00;;;;;;;3.40;2.17;;;;;;;;;;10123461;29;20445;-80
2022/09/07 17:07:03;;;;;;;3.43;2.60;;;;;;;;;;10122078;29;20503;-80
2022/09/07 17:12:06;;;;;;;2.93;2.43;;;;;;;;;;10122529;29;20929;-80
2022/09/07 17:17:07;;;;;;;3.43;2.40;;;;;;;;;;10122413;29;20409;-79
2022/09/07 17:22:11;;;;;;;3.65;2.30;;;;;;;;;;10125027;29;20432;-80
2022/09/07 17:27:12;;;;;;;2.70;2.50;;;;;;;;;;10126156;29;20412;-80
2022/09/07 17:32:14;;;;;;;5.27;2.40;;;;;;;;;;10124171;29;20774;-79
2022/09/07 17:37:17;;;;;;;5.10;3.15;;;;;;;;;;10125045;29;20913;-80
2022/09/07 17:42:19;;;;;;;5.15;3.10;;;;;;;;;;10124074;29;20443;-81
2022/09/07 17:47:21;;;;;;;4.37;2.70;;;;;;;;;;10126643;29;20417;-80
2022/09/07 17:52:26;;;;;;;3.95;2.63;;;;;;;;;;10125311;29;20499;-81
2022/09/07 17:57:28;;;;;;;3.42;2.78;;;;;;;;;;10131057;29;20427;-81
2022/09/07 18:02:30;;;;;;;6.90;3.10;;;;;;;;;;10129651;29;20437;-81
2022/09/07 18:07:33;;;;;;;4.10;2.60;;;;;;;;;;10131734;29;20409;-81
2022/09/07 18:12:35;;;;;;;3.83;3.22;;;;;;;;;;10128181;29;20413;-81
2022/09/07 18:17:38;;;;;;;6.13;3.67;;;;;;;;;;10118969;29;20504;-80
2022/09/07 18:22:41;;;;;;;8.98;5.60;;;;;;;;;;10119709;29;20442;-81
2022/09/07 18:27:43;;;;;;;6.82;5.60;;;;;;;;;;10108014;29;20417;-79
2022/09/07 18:32:45;;;;;;;8.55;4.72;;;;;;;;;;10132983;29;20416;-82
2022/09/07 18:37:48;;;;;;;5.20;4.10;;;;;;;;;;10131968;29;20503;-81
2022/09/07 18:42:50;;;;;;;5.82;4.90;;;;;;;;;;10130008;29;20477;-81
2022/09/07 18:47:52;;;;;;;10.90;6.97;;;;;;;;;;10090243;29;20426;-81
2022/09/07 18:52:55;;;;;;;14.98;9.27;;;;;;;;;;10089274;29;20415;-81
2022/09/07 18:57:57;;;;;;;15.88;10.32;;;;;;;;;;10086890;29;20502;-80
2022/09/07 19:02:59;;;;;;;15.73;9.75;;;;;;;;;;10087061;29;20807;-80
2022/09/07 19:08:02;;;;;;;14.03;9.57;;;;;;;;;;10076724;29;20413;-81
2022/09/07 19:13:04;;;;;;;14.85;9.20;;;;;;;;;;10086171;29;20415;-81
2022/09/07 19:18:07;;;;;;;13.10;8.45;;;;;;;;;;10087926;29;20431;-79
2022/09/07 19:23:10;;;;;;;12.83;7.93;;;;;;;;;;10076940;29;20781;-81
2022/09/07 19:28:13;;;;;;;14.07;8.43;;;;;;;;;;10091591;29;20506;-79
2022/09/07 19:33:15;;;;;;;9.35;6.18;;;;;;;;;;10091775;29;20454;-80
2022/09/07 19:38:18;;;;;;;8.07;5.43;;;;;;;;;;10090466;29;20422;-81
2022/09/07 19:43:20;;;;;;;8.13;5.78;;;;;;;;;;10093022;29;20794;-81
2022/09/07 19:48:22;;;;;;;8.65;6.38;;;;;;;;;;10127275;29;20885;-81
2022/09/07 19:53:25;;;;;;;11.20;8.03;;;;;;;;;;10126993;29;20860;-80
2022/09/07 19:58:27;;;;;;;10.17;8.17;;;;;;;;;;10125775;29;20508;-81
2022/09/07 20:03:28;;;;;;;15.30;9.60;;;;;;;;;;10124853;29;20443;-80
2022/09/07 20:08:32;;;;;;;12.63;9.38;;;;;;;;;;10125707;29;20421;-81
2022/09/07 20:13:35;;;;;;;13.38;9.77;;;;;;;;;;10122549;29;20544;-80
2022/09/07 20:18:37;;;;;;;12.17;9.23;;;;;;;;;;10121864;29;20420;-81
2022/09/07 20:23:41;;;;;;;11.65;8.85;;;;;;;;;;10113398;29;20510;-81
2022/09/07 20:28:43;;;;;;;10.82;9.18;;;;;;;;;;10105259;29;20421;-81
2022/09/07 20:33:46;;;;;;;11.47;8.93;;;;;;;;;;10102584;29;20416;-78
2022/09/07 20:38:51;;;;;;;11.07;8.77;;;;;;;;;;10091332;29;20422;-79
2022/09/07 20:43:53;;;;;;;11.68;9.18;;;;;;;;;;10127341;29;20439;-80
2022/09/07 20:48:55;;;;;;;10.68;8.30;;;;;;;;;;10127334;29;20970;-80
2022/09/07 20:53:58;;;;;;;10.48;8.30;;;;;;;;;;10126847;29;20492;-80
2022/09/07 20:59:02;;;;;;;10.45;9.25;;;;;;;;;;10125617;29;20786;-80
2022/09/07 21:04:04;;;;;;;11.57;9.30;;;;;;;;;;10125960;29;20433;-80
2022/09/07 21:09:09;;;;;;;9.95;8.52;;;;;;;;;;10125633;29;20417;-81
2022/09/07 21:14:12;;;;;;;10.15;9.10;;;;;;;;;;10123706;29;20831;-80
2022/09/07 21:19:14;;;;;;;10.07;8.98;;;;;;;;;;10122454;29;20409;-79
2022/09/07 21:24:19;;;;;;;10.82;9.02;;;;;;;;;;10125770;29;20469;-80
2022/09/07 21:29:23;;;;;;;11.50;9.30;;;;;;;;;;10124981;29;20819;-80
2022/09/07 21:34:25;;;;;;;10.80;9.70;;;;;;;;;;10123748;29;20449;-80
2022/09/07 21:39:28;;;;;;;12.23;9.30;;;;;;;;;;10123040;29;20424;-79
2022/09/07 21:44:30;;;;;;;11.55;8.95;;;;;;;;;;10122539;29;20441;-80
2022/09/07 21:49:31;;;;;;;10.77;8.93;;;;;;;;;;10121955;29;20417;-80
2022/09/07 21:54:34;;;;;;;13.00;9.15;;;;;;;;;;10121218;29;20509;-80
2022/09/07 21:59:36;;;;;;;10.65;8.90;;;;;;;;;;10120568;29;20507;-80
2022/09/07 22:04:38;;;;;;;10.52;8.50;;;;;;;;;;10118506;29;20432;-79
2022/09/07 22:09:41;;;;;;;11.10;9.10;;;;;;;;;;10111475;29;20825;-79
2022/09/07 22:14:44;;;;;;;13.00;9.10;;;;;;;;;;10119163;29;20421;-79
2022/09/07 22:19:46;;;;;;;12.43;10.07;;;;;;;;;;10118983;29;20417;-79
2022/09/07 22:24:49;;;;;;;15.05;10.48;;;;;;;;;;10125379;29;20436;-79
2022/09/07 22:29:51;;;;;;;11.25;10.07;;;;;;;;;;10124037;29;20497;-79
2022/09/07 22:34:53;;;;;;;11.43;10.23;;;;;;;;;;10128859;29;20480;-81
2022/09/07 22:39:56;;;;;;;11.97;10.67;;;;;;;;;;10130606;29;20488;-79
2022/09/07 22:44:58;;;;;;;13.48;10.93;;;;;;;;;;10129457;29;20441;-79
2022/09/07 22:50:00;;;;;;;15.32;11.13;;;;;;;;;;10127388;29;20413;-79
2022/09/07 22:55:03;;;;;;;12.00;10.00;;;;;;;;;;10127079;29;20494;-79
2022/09/07 23:00:07;;;;;;;14.02;10.35;;;;;;;;;;10125747;29;20433;-80
2022/09/07 23:05:10;;;;;;;12.25;10.07;;;;;;;;;;10125067;29;20444;-79
2022/09/07 23:10:13;;;;;;;10.90;9.27;;;;;;;;;;10124313;29;20413;-79
2022/09/07 23:15:15;;;;;;;11.50;9.20;;;;;;;;;;10126171;29;20786;-78
2022/09/07 23:20:17;;;;;;;13.10;9.63;;;;;;;;;;10123635;29;20413;-80
2022/09/07 23:25:21;;;;;;;10.93;9.60;;;;;;;;;;10130989;29;20429;-79
2022/09/07 23:30:23;;;;;;;11.77;9.25;;;;;;;;;;10130886;29;20548;-79
2022/09/07 23:35:25;;;;;;;10.18;9.02;;;;;;;;;;10130289;29;20424;-79
2022/09/07 23:40:29;;;;;;;10.43;9.33;;;;;;;;;;10129882;29;20411;-80
2022/09/07 23:45:31;;;;;;;9.87;8.87;;;;;;;;;;10129233;29;20445;-80
2022/09/07 23:50:32;;;;;;;10.18;9.05;;;;;;;;;;10129506;29;20509;-78
2022/09/07 23:55:36;;;;;;;10.15;8.40;;;;;;;;;;10128877;29;20898;-80
